Time;durP1;ratioP1;P1;durP2;ratioP2;P2;SDS_P1;SDS_P2;PMS_P1;PMS_P2;Temp;Humidity;BMP_temperature;BMP_pressure;BME280_temperature;BME280_humidity;BME280_pressure;Samples;Min_cycle;Max_cycle;Signal;HPM_P1;HPM_P2
2021/05/26 00:00:25;;;;;;;15.77;4.85;;;11.90;99.90;;;;;;5066633;28;20397;-77
2021/05/26 00:02:52;;;;;;;14.88;5.28;;;11.80;99.90;;;;;;5065944;28;20621;-76
2021/05/26 00:05:19;;;;;;;22.55;5.78;;;11.80;99.90;;;;;;5083261;28;20566;-76
2021/05/26 00:07:45;;;;;;;11.75;5.30;;;11.70;99.90;;;;;;5084200;28;20201;-76
2021/05/26 00:10:13;;;;;;;15.43;5.57;;;11.70;99.90;;;;;;5081609;28;20249;-76
2021/05/26 00:12:39;;;;;;;17.90;5.90;;;11.60;99.90;;;;;;5085293;28;20674;-76
2021/05/26 00:15:07;;;;;;;12.70;5.47;;;11.60;99.90;;;;;;5082005;28;20210;-76
2021/05/26 00:17:34;;;;;;;18.15;6.75;;;11.60;99.90;;;;;;5087832;28;20186;-74
2021/05/26 00:20:00;;;;;;;15.95;5.95;;;11.50;99.90;;;;;;5086000;28;20197;-76
2021/05/26 00:22:28;;;;;;;17.88;6.65;;;11.50;99.90;;;;;;5084329;28;20229;-76
2021/05/26 00:24:54;;;;;;;19.35;7.25;;;11.50;99.90;;;;;;5086149;28;20284;-75
2021/05/26 00:27:20;;;;;;;19.65;7.07;;;11.40;99.90;;;;;;5082210;28;20213;-75
2021/05/26 00:29:48;;;;;;;;;;;11.40;99.90;;;;;;5065980;28;20313;-75
2021/05/26 00:32:14;;;;;;;18.33;7.57;;;11.40;99.90;;;;;;5069102;28;20415;-75
2021/05/26 00:34:40;;;;;;;16.85;7.38;;;11.30;99.90;;;;;;5085665;28;20740;-76
2021/05/26 00:37:07;;;;;;;24.63;7.45;;;11.30;99.90;;;;;;5102443;28;20208;-76
2021/05/26 00:39:34;;;;;;;22.27;7.20;;;11.30;99.90;;;;;;5065283;28;20221;-76
2021/05/26 00:42:01;;;;;;;19.40;7.47;;;11.30;99.90;;;;;;5082370;28;20233;-76
2021/05/26 00:44:27;;;;;;;23.88;7.10;;;11.30;99.90;;;;;;5067298;28;20209;-75
2021/05/26 00:46:54;;;;;;;18.35;7.75;;;11.30;99.90;;;;;;5086191;28;20608;-75
2021/05/26 00:49:21;;;;;;;21.33;7.45;;;11.30;99.90;;;;;;5068986;28;20927;-76
2021/05/26 00:51:49;;;;;;;17.27;7.15;;;11.30;99.90;;;;;;5085711;28;20221;-76
2021/05/26 00:54:15;;;;;;;22.38;7.10;;;11.30;99.90;;;;;;5086144;28;20210;-75
2021/05/26 00:56:43;;;;;;;24.52;7.78;;;11.20;99.90;;;;;;5065219;28;20213;-76
2021/05/26 00:59:09;;;;;;;21.92;7.90;;;11.20;99.90;;;;;;5085333;28;20798;-76
2021/05/26 01:01:36;;;;;;;21.42;8.32;;;11.20;99.90;;;;;;5067345;28;20205;-76
2021/05/26 01:04:04;;;;;;;17.85;8.45;;;11.20;99.90;;;;;;5101862;28;20201;-76
2021/05/26 01:06:31;;;;;;;18.23;8.48;;;11.20;99.90;;;;;;5085594;28;20697;-76
2021/05/26 01:08:57;;;;;;;18.92;8.73;;;11.20;99.90;;;;;;5068249;28;20685;-76
2021/05/26 01:11:24;;;;;;;22.15;9.70;;;11.20;99.90;;;;;;5102144;28;20708;-75
2021/05/26 01:13:51;;;;;;;22.65;8.70;;;11.20;99.90;;;;;;5063284;28;20214;-75
2021/05/26 01:16:18;;;;;;;27.48;8.77;;;11.20;99.90;;;;;;5084486;28;20190;-76
2021/05/26 01:18:48;;;;;;;25.15;9.05;;;11.20;99.90;;;;;;5099338;28;20293;-75
2021/05/26 01:21:19;;;;;;;23.05;9.38;;;11.20;99.90;;;;;;5071640;28;20210;-76
2021/05/26 01:23:50;;;;;;;18.58;8.95;;;11.20;99.90;;;;;;5067590;28;20664;-76
2021/05/26 01:26:33;;;;;;;25.63;9.65;;;11.20;99.90;;;;;;5071330;28;20194;-75
2021/05/26 01:29:00;;;;;;;21.40;9.32;;;11.20;99.90;;;;;;5083784;28;20304;-75
2021/05/26 01:31:27;;;;;;;20.70;10.50;;;11.20;99.90;;;;;;5069316;28;20210;-76
2021/05/26 01:34:05;;;;;;;19.92;11.27;;;11.20;99.90;;;;;;5084096;28;20295;-76
2021/05/26 01:36:40;;;;;;;31.73;12.70;;;11.10;99.90;;;;;;5085773;28;20206;-75
2021/05/26 01:39:08;;;;;;;22.30;13.35;;;11.10;99.90;;;;;;5068597;28;20288;-75
2021/05/26 01:41:35;;;;;;;29.25;13.20;;;11.10;99.90;;;;;;5101359;28;20213;-75
2021/05/26 01:44:03;;;;;;;31.23;13.40;;;11.10;99.90;;;;;;5071120;28;20652;-74
2021/05/26 01:46:30;;;;;;;24.17;12.45;;;11.10;99.90;;;;;;5086661;28;20210;-74
2021/05/26 01:48:57;;;;;;;29.52;12.55;;;11.10;99.90;;;;;;5084340;28;20280;-75
2021/05/26 01:51:24;;;;;;;26.35;11.15;;;11.10;99.90;;;;;;5087780;28;20276;-75
2021/05/26 01:53:52;;;;;;;26.77;10.00;;;11.10;99.90;;;;;;5089844;28;20197;-75
2021/05/26 01:56:24;;;;;;;27.77;9.68;;;11.10;99.90;;;;;;5086662;28;20197;-76
2021/05/26 01:59:02;;;;;;;29.55;10.50;;;11.10;99.90;;;;;;5071055;28;20238;-75
2021/05/26 02:01:33;;;;;;;26.50;11.18;;;11.00;99.90;;;;;;5085965;28;20713;-76
2021/05/26 02:04:04;;;;;;;24.10;11.77;;;11.00;99.90;;;;;;5071510;28;20198;-75
2021/05/26 02:06:32;;;;;;;34.13;12.13;;;10.90;99.90;;;;;;5084560;28;20194;-74
2021/05/26 02:08:58;;;;;;;25.55;10.57;;;11.00;99.90;;;;;;5088868;28;20202;-75
2021/05/26 02:14:16;;;;;;;22.30;8.50;;;11.00;99.90;;;;;;5071945;28;20194;-75
2021/05/26 02:16:42;;;;;;;19.63;7.50;;;11.00;99.90;;;;;;5086361;28;20193;-75
2021/05/26 02:19:10;;;;;;;24.25;7.43;;;11.00;99.90;;;;;;5071247;28;20198;-75
2021/05/26 02:21:37;;;;;;;19.00;7.25;;;11.00;99.90;;;;;;5069366;28;20205;-75
2021/05/26 02:24:04;;;;;;;20.63;7.65;;;11.00;99.90;;;;;;5086733;28;20849;-75
2021/05/26 02:26:31;;;;;;;21.48;6.82;;;11.00;99.90;;;;;;5085512;28;20209;-75
2021/05/26 02:28:58;;;;;;;17.80;7.20;;;11.00;99.90;;;;;;5069127;28;20684;-75
2021/05/26 02:31:27;;;;;;;16.42;6.82;;;11.10;99.90;;;;;;5086843;28;20186;-75
2021/05/26 02:33:53;;;;;;;17.67;6.65;;;11.10;99.90;;;;;;5087300;28;20294;-75
2021/05/26 02:36:21;;;;;;;13.70;7.15;;;11.10;99.90;;;;;;5070246;28;20263;-75
2021/05/26 02:38:49;;;;;;;16.80;7.00;;;11.10;99.90;;;;;;5067777;28;20970;-75
2021/05/26 02:41:16;;;;;;;20.35;6.28;;;11.10;99.90;;;;;;5071805;28;20202;-76
2021/05/26 02:43:43;;;;;;;17.20;5.72;;;11.10;99.90;;;;;;5084918;28;20365;-75
2021/05/26 02:46:10;;;;;;;17.27;6.03;;;11.10;99.90;;;;;;5088186;28;20239;-75
2021/05/26 02:48:37;;;;;;;18.38;5.50;;;11.10;99.90;;;;;;5100354;28;20224;-75
2021/05/26 02:51:03;;;;;;;11.20;4.68;;;11.10;99.90;;;;;;5103703;28;20202;-74
2021/05/26 02:53:32;;;;;;;16.17;5.22;;;11.10;99.90;;;;;;5067545;28;20216;-75
2021/05/26 02:56:02;;;;;;;21.67;5.28;;;11.10;99.90;;;;;;5051790;28;20217;-75
2021/05/26 02:58:38;;;;;;;10.95;5.22;;;11.10;99.90;;;;;;5087186;28;20661;-76
2021/05/26 03:01:34;;;;;;;13.73;5.20;;;11.10;99.90;;;;;;5071116;28;20202;-75
2021/05/26 03:04:05;;;;;;;13.40;5.10;;;11.10;99.90;;;;;;5065478;28;20971;-75
2021/05/26 03:06:38;;;;;;;13.52;4.85;;;11.10;99.90;;;;;;5069328;28;20646;-75
2021/05/26 03:09:05;;;;;;;8.93;3.85;;;11.10;99.90;;;;;;5065232;28;20225;-75
2021/05/26 03:11:38;;;;;;;12.70;4.65;;;11.10;99.90;;;;;;5068975;28;20208;-75
2021/05/26 03:14:27;;;;;;;11.68;4.07;;;11.10;99.90;;;;;;5067934;28;20593;-76
2021/05/26 03:16:59;;;;;;;9.02;3.67;;;11.10;99.90;;;;;;5086923;28;20281;-75
2021/05/26 03:19:26;;;;;;;12.13;3.33;;;11.00;99.90;;;;;;5084364;28;20205;-75
2021/05/26 03:22:06;;;;;;;8.30;3.50;;;11.00;99.90;;;;;;5067840;28;20261;-76
2021/05/26 03:24:59;;;;;;;11.25;3.70;;;11.00;99.90;;;;;;5080830;28;20209;-75
2021/05/26 03:27:33;;;;;;;7.70;3.67;;;10.90;99.90;;;;;;5087742;28;20198;-75
2021/05/26 03:29:59;;;;;;;14.13;3.67;;;10.90;99.90;;;;;;5083846;28;20213;-75
2021/05/26 03:32:28;;;;;;;10.52;3.95;;;10.90;99.90;;;;;;5086638;28;20205;-74
2021/05/26 03:34:54;;;;;;;9.35;3.65;;;10.90;99.90;;;;;;5101089;28;20193;-75
2021/05/26 03:37:21;;;;;;;8.52;3.47;;;10.90;99.90;;;;;;5085003;28;20202;-75
2021/05/26 03:39:48;;;;;;;9.98;3.83;;;10.90;99.90;;;;;;5085272;28;20198;-76
2021/05/26 03:42:15;;;;;;;9.30;4.07;;;10.90;99.90;;;;;;5084589;28;20254;-76
2021/05/26 03:44:41;;;;;;;16.40;4.25;;;10.90;99.90;;;;;;5083803;28;20198;-76
2021/05/26 03:47:08;;;;;;;13.80;5.10;;;10.80;99.90;;;;;;5086640;28;20248;-76
2021/05/26 03:49:35;;;;;;;17.35;5.63;;;10.80;99.90;;;;;;5068633;28;20221;-76
2021/05/26 03:52:06;;;;;;;17.00;5.53;;;10.80;99.90;;;;;;5069900;28;20216;-76
2021/05/26 03:54:34;;;;;;;12.50;5.95;;;10.90;99.90;;;;;;5083237;28;20218;-76
2021/05/26 03:57:01;;;;;;;20.10;6.18;;;10.80;99.90;;;;;;5069901;28;20324;-76
2021/05/26 03:59:27;;;;;;;21.00;6.13;;;10.80;99.90;;;;;;5102918;27;20260;-75
2021/05/26 04:01:54;;;;;;;19.50;6.20;;;10.80;99.90;;;;;;5086075;28;20203;-76
2021/05/26 04:04:20;;;;;;;23.92;7.47;;;10.80;99.90;;;;;;5068335;28;20599;-76
2021/05/26 04:06:50;;;;;;;26.73;6.72;;;10.90;99.90;;;;;;5069009;28;20197;-75
2021/05/26 04:09:21;;;;;;;21.98;7.10;;;10.80;99.90;;;;;;5066967;28;20508;-75
2021/05/26 04:11:48;;;;;;;24.58;7.40;;;10.90;99.90;;;;;;5068890;28;20296;-76
2021/05/26 04:14:38;;;;;;;25.02;7.13;;;10.90;99.90;;;;;;5082857;28;20198;-75
2021/05/26 04:17:13;;;;;;;26.52;7.30;;;10.90;99.90;;;;;;5083359;28;20242;-76
2021/05/26 04:19:54;;;;;;;20.02;6.82;;;10.90;99.90;;;;;;5065071;28;20202;-76
2021/05/26 04:22:21;;;;;;;27.48;7.47;;;10.90;99.90;;;;;;5069002;28;20677;-75
2021/05/26 04:24:54;;;;;;;23.08;6.75;;;10.90;99.90;;;;;;5097949;28;20248;-77
2021/05/26 04:27:21;;;;;;;31.70;6.82;;;11.00;99.90;;;;;;5087072;28;20201;-78
2021/05/26 04:29:48;;;;;;;28.13;7.32;;;11.00;99.90;;;;;;5082615;28;20252;-78
2021/05/26 04:32:16;;;;;;;23.45;6.63;;;11.00;99.90;;;;;;5068661;28;20194;-76
2021/05/26 04:34:42;;;;;;;18.30;6.85;;;11.00;99.90;;;;;;5080981;28;20225;-75
2021/05/26 04:37:08;;;;;;;19.73;6.70;;;11.10;99.90;;;;;;5068339;28;20213;-76
2021/05/26 04:39:36;;;;;;;21.52;7.00;;;11.10;99.90;;;;;;5081161;28;20206;-76
2021/05/26 04:42:02;;;;;;;22.77;6.57;;;11.10;99.90;;;;;;5098606;28;20729;-76
2021/05/26 04:44:29;;;;;;;25.25;6.38;;;11.10;99.90;;;;;;5062729;28;20202;-76
2021/05/26 04:46:55;;;;;;;30.45;6.53;;;11.10;99.90;;;;;;5082564;28;20507;-75
2021/05/26 04:49:22;;;;;;;16.23;6.00;;;11.20;99.90;;;;;;5080998;28;20214;-76
2021/05/26 04:51:48;;;;;;;26.35;6.57;;;11.20;99.90;;;;;;5081673;28;20280;-76
2021/05/26 04:54:14;;;;;;;25.15;6.75;;;11.20;99.90;;;;;;5099129;28;20222;-75
2021/05/26 04:56:45;;;;;;;21.48;6.20;;;11.20;99.90;;;;;;5073263;28;20240;-76
2021/05/26 04:59:11;;;;;;;28.92;6.60;;;11.20;99.90;;;;;;5072866;28;20231;-76
2021/05/26 05:01:38;;;;;;;27.77;6.40;;;11.20;99.90;;;;;;5084317;28;20276;-75
2021/05/26 05:04:05;;;;;;;29.42;6.72;;;11.20;99.90;;;;;;5088057;28;20200;-75
2021/05/26 05:06:31;;;;;;;27.20;6.35;;;11.20;99.90;;;;;;5091528;28;20229;-75
2021/05/26 05:08:58;;;;;;;24.30;6.43;;;11.30;99.90;;;;;;5087253;28;20230;-76
2021/05/26 05:11:24;;;;;;;23.45;6.28;;;11.30;99.90;;;;;;5090494;28;20198;-76
2021/05/26 05:13:55;;;;;;;24.30;6.43;;;11.40;99.90;;;;;;5087750;28;20217;-76
2021/05/26 05:16:22;;;;;;;15.10;6.13;;;11.40;99.90;;;;;;5088117;28;20661;-77
2021/05/26 05:18:48;;;;;;;18.17;6.15;;;11.40;99.90;;;;;;5086516;28;20198;-76
2021/05/26 05:21:14;;;;;;;20.33;6.40;;;11.50;99.90;;;;;;5087138;28;20427;-75
2021/05/26 05:23:41;;;;;;;18.52;6.40;;;11.80;99.90;;;;;;5086855;28;20808;-76
2021/05/26 05:26:07;;;;;;;17.15;5.68;;;12.10;99.90;;;;;;5085584;28;20501;-76
2021/05/26 05:28:34;;;;;;;13.52;5.10;;;12.40;99.90;;;;;;5086413;28;20482;-76
2021/05/26 05:31:01;;;;;;;12.07;4.97;;;12.50;99.90;;;;;;5085848;28;20276;-75
2021/05/26 05:33:28;;;;;;;10.75;5.05;;;12.30;99.90;;;;;;5087220;28;20653;-75
2021/05/26 05:35:55;;;;;;;10.48;4.70;;;12.10;99.90;;;;;;5087801;28;20196;-75
2021/05/26 05:38:21;;;;;;;13.10;5.00;;;12.00;99.90;;;;;;5086899;28;20577;-76
2021/05/26 05:40:48;;;;;;;12.15;4.93;;;12.00;99.90;;;;;;5070998;28;20197;-76
2021/05/26 05:43:14;;;;;;;14.60;4.70;;;12.00;99.90;;;;;;5084799;28;20260;-76
2021/05/26 05:45:41;;;;;;;10.20;4.68;;;12.00;99.90;;;;;;5105043;28;20210;-76
2021/05/26 05:48:09;;;;;;;9.00;4.32;;;12.00;99.90;;;;;;5088613;28;20198;-76
2021/05/26 05:50:36;;;;;;;13.85;4.72;;;12.00;99.90;;;;;;5100944;28;20233;-74
2021/05/26 05:53:04;;;;;;;11.73;4.13;;;12.00;99.90;;;;;;5089722;28;20752;-76
2021/05/26 05:55:31;;;;;;;9.18;4.05;;;12.00;99.90;;;;;;5092890;28;20584;-75
2021/05/26 05:58:01;;;;;;;8.30;3.50;;;12.00;99.90;;;;;;5091389;28;20582;-76
2021/05/26 06:00:27;;;;;;;10.80;3.83;;;11.90;99.90;;;;;;5087666;28;20217;-76
2021/05/26 06:02:54;;;;;;;15.27;4.35;;;12.00;99.90;;;;;;5072076;28;20255;-75
2021/05/26 06:05:21;;;;;;;13.93;4.05;;;12.00;99.90;;;;;;5089486;28;20569;-75
2021/05/26 06:07:48;;;;;;;14.15;4.75;;;11.90;99.90;;;;;;5092579;28;20208;-74
2021/05/26 06:10:15;;;;;;;13.77;4.78;;;11.90;99.90;;;;;;5090680;28;20609;-76
2021/05/26 06:12:41;;;;;;;15.00;5.00;;;11.90;99.90;;;;;;5091830;28;20414;-76
2021/05/26 06:15:08;;;;;;;14.38;5.38;;;11.90;99.90;;;;;;5073381;28;20202;-76
2021/05/26 06:17:35;;;;;;;13.77;5.10;;;11.90;99.90;;;;;;5090913;28;20550;-75
2021/05/26 06:20:01;;;;;;;10.95;5.30;;;11.90;99.90;;;;;;5090974;28;20202;-74
2021/05/26 06:22:28;;;;;;;15.13;5.10;;;12.00;99.90;;;;;;5072920;28;20694;-75
2021/05/26 06:24:56;;;;;;;10.90;6.32;;;12.00;99.90;;;;;;5073176;28;20205;-75
2021/05/26 06:27:23;;;;;;;11.68;5.63;;;12.00;99.90;;;;;;5092131;28;20250;-76
2021/05/26 06:29:49;;;;;;;12.65;5.68;;;12.00;99.90;;;;;;5090613;28;20229;-75
2021/05/26 06:32:16;;;;;;;8.52;5.20;;;12.00;99.90;;;;;;5091923;28;20201;-75
2021/05/26 06:34:42;;;;;;;11.02;4.93;;;12.00;99.90;;;;;;5088636;28;20289;-76
2021/05/26 06:37:09;;;;;;;8.88;3.80;;;12.00;99.90;;;;;;5072076;28;20284;-74
2021/05/26 06:39:36;;;;;;;5.13;3.00;;;12.10;99.90;;;;;;5090480;28;20308;-75
2021/05/26 06:42:02;;;;;;;4.30;2.88;;;12.00;99.90;;;;;;5072174;28;20237;-75
2021/05/26 06:44:29;;;;;;;7.50;2.70;;;12.00;99.90;;;;;;5090433;28;20853;-76
2021/05/26 06:46:55;;;;;;;5.10;2.85;;;12.10;99.90;;;;;;5091221;28;20243;-76
2021/05/26 06:49:22;;;;;;;12.70;3.45;;;12.10;99.90;;;;;;5071687;28;20619;-76
2021/05/26 06:51:48;;;;;;;8.23;3.28;;;12.10;99.90;;;;;;5090572;28;20205;-73
2021/05/26 06:54:15;;;;;;;8.25;3.47;;;12.10;99.90;;;;;;5089569;28;20194;-74
2021/05/26 06:56:42;;;;;;;8.95;3.30;;;12.10;99.90;;;;;;5089692;28;20212;-75
2021/05/26 06:59:08;;;;;;;10.23;3.40;;;12.10;99.90;;;;;;5089970;28;20239;-74
2021/05/26 07:01:35;;;;;;;6.50;3.55;;;12.10;99.90;;;;;;5088291;28;20677;-74
2021/05/26 07:04:01;;;;;;;8.40;3.40;;;12.10;99.90;;;;;;5071671;28;20673;-75
2021/05/26 07:06:28;;;;;;;8.45;4.07;;;12.10;99.90;;;;;;5090124;28;20212;-74
2021/05/26 07:08:54;;;;;;;5.32;3.13;;;12.10;99.90;;;;;;5089439;28;20214;-75
2021/05/26 07:11:20;;;;;;;8.48;3.50;;;12.10;99.90;;;;;;5088934;28;20202;-76
2021/05/26 07:13:48;;;;;;;5.22;2.88;;;12.20;99.90;;;;;;5089412;28;20198;-74
2021/05/26 07:16:14;;;;;;;8.50;3.50;;;12.20;99.90;;;;;;5090050;28;20204;-73
2021/05/26 07:18:45;;;;;;;4.60;3.03;;;12.20;99.90;;;;;;5071038;28;20206;-74
2021/05/26 07:21:12;;;;;;;12.57;3.97;;;12.30;99.90;;;;;;5086408;28;20197;-74
2021/05/26 07:23:38;;;;;;;7.20;2.83;;;12.30;99.90;;;;;;5088903;28;20194;-73
2021/05/26 07:26:05;;;;;;;5.40;2.70;;;12.30;99.90;;;;;;5088948;28;20239;-74
2021/05/26 07:28:31;;;;;;;6.82;3.30;;;12.30;99.90;;;;;;5069239;28;20251;-74
2021/05/26 07:30:59;;;;;;;6.50;3.05;;;12.30;99.90;;;;;;5090772;28;20213;-74
2021/05/26 07:33:25;;;;;;;4.82;2.90;;;12.40;99.90;;;;;;5089856;28;20204;-74
2021/05/26 07:35:52;;;;;;;4.72;2.47;;;12.40;99.90;;;;;;5089013;28;20194;-76
2021/05/26 07:38:18;;;;;;;8.25;3.10;;;12.40;99.90;;;;;;5090025;28;20206;-75
2021/05/26 07:40:45;;;;;;;8.00;2.65;;;12.50;99.90;;;;;;5090107;28;20300;-74
2021/05/26 07:43:11;;;;;;;5.07;2.50;;;12.40;99.90;;;;;;5087988;28;20238;-74
2021/05/26 07:45:37;;;;;;;5.25;2.38;;;12.50;99.90;;;;;;5089806;28;20255;-74
2021/05/26 07:48:06;;;;;;;5.55;2.60;;;12.50;99.90;;;;;;5089821;28;20210;-75
2021/05/26 07:50:35;;;;;;;4.55;2.00;;;12.50;99.90;;;;;;5086300;28;20330;-75
2021/05/26 07:53:01;;;;;;;4.97;2.30;;;12.50;99.90;;;;;;5089003;28;20603;-75
2021/05/26 07:55:28;;;;;;;6.28;2.67;;;12.50;99.90;;;;;;5071366;28;20210;-74
2021/05/26 07:57:54;;;;;;;7.28;2.78;;;12.50;99.90;;;;;;5071009;28;20202;-74
2021/05/26 08:00:22;;;;;;;7.22;2.83;;;12.50;99.90;;;;;;5070250;28;20198;-74
2021/05/26 08:02:48;;;;;;;7.18;2.45;;;12.50;99.90;;;;;;5088893;28;20572;-75
2021/05/26 08:05:18;;;;;;;5.28;2.90;;;12.60;99.90;;;;;;5089238;28;20205;-74
2021/05/26 08:07:44;;;;;;;6.85;3.17;;;12.50;99.90;;;;;;5089616;28;20790;-74
2021/05/26 08:10:13;;;;;;;5.53;2.60;;;12.50;99.90;;;;;;5089714;28;21041;-75
2021/05/26 08:12:40;;;;;;;4.97;2.38;;;12.50;99.90;;;;;;5088776;28;20202;-75
2021/05/26 08:15:08;;;;;;;4.03;2.50;;;12.50;99.90;;;;;;5090169;28;20201;-76
2021/05/26 08:17:35;;;;;;;10.50;2.30;;;12.50;99.90;;;;;;5089475;28;20588;-74
2021/05/26 08:20:01;;;;;;;6.88;2.08;;;12.40;99.90;;;;;;5090184;28;20224;-75
2021/05/26 08:22:29;;;;;;;6.40;2.30;;;12.40;99.90;;;;;;5089676;28;20301;-75
2021/05/26 08:24:55;;;;;;;3.25;1.80;;;12.40;99.90;;;;;;5088002;28;20313;-74
2021/05/26 08:27:24;;;;;;;2.83;1.90;;;12.50;99.90;;;;;;5086452;28;20197;-73
2021/05/26 08:29:50;;;;;;;4.50;1.83;;;12.50;99.90;;;;;;5088893;28;20226;-74
2021/05/26 08:32:16;;;;;;;4.78;1.30;;;12.50;99.90;;;;;;5089066;28;20666;-75
2021/05/26 08:34:43;;;;;;;6.50;1.70;;;12.50;99.90;;;;;;5089031;28;20217;-74
2021/05/26 08:37:09;;;;;;;4.15;1.63;;;12.60;99.90;;;;;;5088748;28;20225;-74
2021/05/26 08:39:37;;;;;;;3.63;1.30;;;12.60;99.90;;;;;;5089738;28;20193;-75
2021/05/26 08:42:03;;;;;;;2.03;1.42;;;12.70;99.90;;;;;;5088664;28;20229;-74
2021/05/26 08:44:30;;;;;;;2.88;1.20;;;12.80;99.90;;;;;;5089534;28;20232;-74
2021/05/26 08:46:57;;;;;;;2.97;1.38;;;12.80;99.90;;;;;;5088976;28;20270;-74
2021/05/26 08:49:24;;;;;;;2.80;1.38;;;12.90;99.90;;;;;;5089324;28;20229;-74
2021/05/26 08:51:50;;;;;;;3.60;1.17;;;12.90;99.90;;;;;;5089140;28;20205;-74
2021/05/26 08:54:17;;;;;;;5.88;1.20;;;13.00;99.90;;;;;;5089195;28;20670;-74
2021/05/26 08:56:45;;;;;;;4.47;1.48;;;13.00;99.90;;;;;;5089594;28;20251;-74
2021/05/26 08:59:15;;;;;;;1.25;0.80;;;12.90;99.90;;;;;;5089192;28;20202;-74
2021/05/26 09:01:47;;;;;;;1.73;0.93;;;12.90;99.90;;;;;;5088917;28;20296;-74
2021/05/26 09:04:28;;;;;;;1.58;0.90;;;12.90;99.90;;;;;;5088262;28;20289;-75
2021/05/26 09:07:12;;;;;;;1.20;0.80;;;12.90;99.90;;;;;;5087301;28;20232;-74
2021/05/26 09:09:51;;;;;;;1.13;0.75;;;12.90;99.90;;;;;;5086794;28;20225;-74
2021/05/26 09:12:26;;;;;;;1.63;0.80;;;12.90;99.90;;;;;;5087425;28;20722;-74
2021/05/26 09:14:53;;;;;;;2.20;0.88;;;13.00;99.90;;;;;;5086688;28;20756;-73
2021/05/26 09:17:19;;;;;;;8.90;0.85;;;12.90;99.90;;;;;;5082965;28;20209;-74
2021/05/26 09:19:46;;;;;;;3.95;0.80;;;13.00;99.90;;;;;;5085124;28;20313;-74
2021/05/26 09:22:13;;;;;;;3.58;0.90;;;13.00;99.90;;;;;;5081177;28;20448;-75
2021/05/26 09:24:40;;;;;;;3.25;0.85;;;13.30;98.70;;;;;;5084469;28;20473;-75
2021/05/26 09:27:08;;;;;;;3.88;1.00;;;13.70;97.60;;;;;;5082829;28;21671;-75
2021/05/26 09:29:36;;;;;;;3.33;1.00;;;14.00;96.90;;;;;;5081326;28;20473;-74
2021/05/26 09:32:14;;;;;;;8.57;1.40;;;14.20;96.70;;;;;;5079735;28;20556;-73
2021/05/26 09:34:42;;;;;;;3.78;1.23;;;14.30;96.50;;;;;;5080544;28;20435;-73
2021/05/26 09:37:13;;;;;;;2.22;0.93;;;14.40;95.80;;;;;;5078351;28;20476;-75
2021/05/26 09:39:51;;;;;;;2.20;0.90;;;14.50;95.30;;;;;;5083957;28;20435;-74
2021/05/26 09:42:36;;;;;;;2.08;0.90;;;14.50;94.30;;;;;;5085532;28;20453;-73
2021/05/26 09:45:13;;;;;;;2.72;1.10;;;14.50;93.30;;;;;;5086744;28;20432;-73
2021/05/26 09:47:42;;;;;;;2.97;0.90;;;14.60;93.30;;;;;;5082653;28;20438;-76
2021/05/26 09:50:22;;;;;;;5.10;1.37;;;14.70;92.80;;;;;;5086744;28;20433;-75
2021/05/26 09:52:57;;;;;;;1.63;0.90;;;14.70;93.00;;;;;;5085279;28;20948;-75
2021/05/26 09:55:25;;;;;;;2.05;0.90;;;14.80;92.10;;;;;;5087825;28;20444;-75
2021/05/26 09:57:53;;;;;;;2.13;0.95;;;14.80;92.20;;;;;;5086760;28;20437;-75
2021/05/26 10:00:21;;;;;;;4.00;1.20;;;14.80;91.60;;;;;;5086493;28;20425;-76
2021/05/26 10:02:50;;;;;;;2.35;1.00;;;14.70;92.40;;;;;;5084146;28;20546;-75
2021/05/26 10:05:18;;;;;;;3.33;1.20;;;14.80;92.00;;;;;;5070253;28;20414;-75
2021/05/26 10:08:07;;;;;;;2.00;0.90;;;14.80;92.20;;;;;;5085976;28;20827;-74
2021/05/26 10:10:36;;;;;;;2.17;1.00;;;14.70;91.90;;;;;;5067042;28;20917;-74
2021/05/26 10:13:18;;;;;;;3.05;1.20;;;14.70;91.40;;;;;;5086211;28;20437;-75
2021/05/26 10:15:49;;;;;;;3.40;1.10;;;14.70;91.70;;;;;;5085702;28;20766;-75
2021/05/26 10:18:16;;;;;;;2.55;1.02;;;14.70;91.20;;;;;;5099355;28;20433;-73
2021/05/26 10:20:45;;;;;;;3.90;1.55;;;14.70;91.10;;;;;;5068981;28;20434;-75
2021/05/26 10:23:16;;;;;;;3.42;1.30;;;14.70;91.80;;;;;;5084100;28;20418;-74
2021/05/26 10:25:44;;;;;;;5.05;1.40;;;14.80;90.80;;;;;;5062163;28;20443;-74
2021/05/26 10:28:25;;;;;;;3.90;1.10;;;14.80;90.60;;;;;;5085153;28;20789;-75
2021/05/26 10:30:53;;;;;;;2.35;1.20;;;14.80;90.70;;;;;;5101465;28;20487;-75
2021/05/26 10:33:19;;;;;;;4.33;1.20;;;14.90;90.70;;;;;;5087086;28;20889;-75
2021/05/26 10:35:57;;;;;;;3.22;1.30;;;14.90;90.40;;;;;;5087460;28;20429;-77
2021/05/26 10:38:24;;;;;;;4.35;1.50;;;14.90;90.40;;;;;;5066727;28;20461;-74
2021/05/26 10:40:51;;;;;;;7.82;2.10;;;14.90;90.60;;;;;;5069438;28;21325;-75
2021/05/26 10:43:37;;;;;;;4.70;1.77;;;14.90;91.30;;;;;;5086461;28;20548;-74
2021/05/26 10:46:07;;;;;;;5.97;2.20;;;14.80;91.50;;;;;;5084307;28;20429;-75
2021/05/26 10:49:04;;;;;;;5.32;2.10;;;14.80;92.10;;;;;;5086924;28;20536;-75
2021/05/26 10:52:04;;;;;;;7.70;2.60;;;14.90;90.80;;;;;;5067434;28;20914;-77
2021/05/26 10:55:07;;;;;;;7.95;2.60;;;14.80;90.70;;;;;;5085801;28;20430;-77
2021/05/26 10:58:07;;;;;;;6.38;2.40;;;14.80;90.90;;;;;;5083839;28;20421;-75
2021/05/26 11:00:33;;;;;;;5.78;2.40;;;14.80;90.10;;;;;;5086814;28;20429;-74
2021/05/26 11:03:40;;;;;;;7.72;2.40;;;14.90;90.20;;;;;;5084288;28;20414;-77
2021/05/26 11:06:36;;;;;;;7.60;2.42;;;14.90;90.60;;;;;;5082479;28;20448;-76
2021/05/26 11:09:07;;;;;;;9.23;2.35;;;15.00;89.60;;;;;;5085432;28;20897;-76
2021/05/26 11:11:44;;;;;;;4.85;2.00;;;15.10;85.80;;;;;;5083312;28;20451;-77
2021/05/26 11:14:34;;;;;;;9.75;2.38;;;15.10;85.60;;;;;;5084331;28;20432;-76
2021/05/26 11:17:39;;;;;;;7.15;2.20;;;15.10;85.70;;;;;;5082789;28;20448;-77
2021/05/26 11:20:17;;;;;;;7.15;2.17;;;15.10;84.60;;;;;;5082877;28;20421;-77
2021/05/26 11:22:44;;;;;;;5.70;1.93;;;15.10;85.90;;;;;;5080298;28;20978;-76
2021/05/26 11:25:13;;;;;;;7.13;2.40;;;15.10;87.50;;;;;;5085235;28;20436;-76
2021/05/26 11:27:50;;;;;;;7.10;2.10;;;15.20;86.50;;;;;;5081524;28;20440;-76
2021/05/26 11:30:23;;;;;;;8.10;2.20;;;15.30;85.40;;;;;;5082719;28;20961;-77
2021/05/26 11:32:50;;;;;;;6.38;2.25;;;15.40;85.00;;;;;;5078848;28;20467;-76
2021/05/26 11:35:16;;;;;;;7.75;2.15;;;15.40;85.30;;;;;;5086629;28;20576;-75
2021/05/26 11:37:43;;;;;;;6.07;2.10;;;15.50;85.20;;;;;;5083056;28;20436;-75
2021/05/26 11:40:30;;;;;;;5.57;2.00;;;15.50;83.40;;;;;;5086925;28;20417;-75
2021/05/26 11:42:58;;;;;;;7.10;2.30;;;15.50;82.80;;;;;;5082616;28;20977;-75
2021/05/26 11:45:25;;;;;;;7.30;2.05;;;15.40;82.70;;;;;;5084490;28;20433;-75
2021/05/26 11:47:52;;;;;;;8.15;2.30;;;15.40;84.10;;;;;;5083743;28;20701;-75
2021/05/26 11:50:26;;;;;;;6.63;2.35;;;15.50;84.60;;;;;;5085802;28;20433;-76
2021/05/26 11:53:12;;;;;;;8.20;2.20;;;15.60;85.30;;;;;;5082453;28;20482;-77
2021/05/26 11:55:43;;;;;;;6.97;1.90;;;15.70;84.00;;;;;;5067981;28;20475;-76
2021/05/26 11:58:09;;;;;;;5.63;1.90;;;15.70;82.70;;;;;;5083265;28;20429;-76
2021/05/26 12:00:37;;;;;;;7.55;2.03;;;15.70;82.00;;;;;;5080819;28;20468;-76
2021/05/26 12:03:07;;;;;;;4.65;1.73;;;15.70;81.30;;;;;;5098344;28;20469;-75
2021/05/26 12:05:44;;;;;;;3.85;1.92;;;15.70;82.40;;;;;;5066422;28;20459;-76
2021/05/26 12:08:15;;;;;;;7.45;1.80;;;15.80;83.00;;;;;;5083663;28;20905;-77
2021/05/26 12:10:43;;;;;;;7.90;1.75;;;15.90;81.30;;;;;;5083768;28;20953;-75
2021/05/26 12:13:10;;;;;;;4.05;1.35;;;15.90;81.40;;;;;;5084780;28;20986;-75
2021/05/26 12:15:37;;;;;;;3.40;1.30;;;15.90;79.90;;;;;;5085965;28;20476;-77
2021/05/26 12:18:04;;;;;;;6.60;1.50;;;15.90;78.80;;;;;;5081823;28;20437;-76
2021/05/26 12:20:31;;;;;;;5.47;1.50;;;15.80;78.70;;;;;;5083014;28;20486;-76
2021/05/26 12:22:58;;;;;;;2.63;1.60;;;15.70;79.40;;;;;;5067294;28;20425;-76
2021/05/26 12:25:39;;;;;;;6.05;1.50;;;15.60;80.50;;;;;;5085145;28;20520;-76
2021/05/26 12:28:21;;;;;;;5.93;1.45;;;15.50;80.80;;;;;;5083246;28;20439;-77
2021/05/26 12:30:48;;;;;;;4.87;1.50;;;15.50;81.90;;;;;;5063032;28;20910;-75
2021/05/26 12:33:17;;;;;;;5.60;1.58;;;15.50;81.60;;;;;;5068271;28;20478;-75
2021/05/26 12:35:44;;;;;;;6.43;1.57;;;15.60;82.10;;;;;;5086607;28;20917;-76
2021/05/26 12:38:19;;;;;;;4.65;1.63;;;15.70;81.80;;;;;;5084437;28;20854;-75
2021/05/26 12:40:45;;;;;;;3.85;1.48;;;15.80;81.80;;;;;;5085997;28;20921;-76
2021/05/26 12:43:27;;;;;;;5.05;1.65;;;16.00;81.70;;;;;;5084560;28;20481;-76
2021/05/26 12:45:55;;;;;;;4.90;1.27;;;16.10;80.90;;;;;;5083012;28;20782;-75
2021/05/26 12:48:22;;;;;;;6.60;1.80;;;16.20;80.60;;;;;;5085191;28;20423;-75
2021/05/26 12:50:48;;;;;;;6.00;2.00;;;16.30;80.30;;;;;;5066336;28;20425;-75
2021/05/26 12:53:16;;;;;;;5.35;1.40;;;16.30;80.60;;;;;;5082435;28;20540;-76
2021/05/26 12:55:43;;;;;;;5.75;1.60;;;16.30;80.10;;;;;;5083483;28;20426;-76